Time,TemperatureF,DewpointF,PressureIn,WindDirection,WindDirectionDegrees,WindSpeedMPH,WindSpeedGustMPH,Humidity,HourlyPrecipIn,Conditions,Clouds,dailyrainin,SoftwareType,DateUTC
2013-03-09 00:04:00,41.2,38.2,30.04,East,81,0.0,0.0,89,0.00,,---,0.00,VWS V14.01,2013-03-09 08:04:00,
2013-03-09 00:09:00,41.1,38.1,30.04,East,81,0.0,0.0,89,0.00,,---,0.00,VWS V14.01,2013-03-09 08:09:00,
2013-03-09 00:14:00,41.1,38.4,30.04,ESE,106,0.0,2.0,90,0.00,,---,0.00,VWS V14.01,2013-03-09 08:14:00,
2013-03-09 00:19:00,41.2,38.5,30.04,ESE,106,0.0,2.0,90,0.00,,---,0.00,VWS V14.01,2013-03-09 08:19:00,
2013-03-09 00:24:00,41.1,38.1,30.04,ESE,106,0.0,2.0,89,0.00,,---,0.00,VWS V14.01,2013-03-09 08:24:00,
2013-03-09 00:29:00,40.9,37.9,30.05,ESE,106,0.0,2.0,89,0.00,,---,0.00,VWS V14.01,2013-03-09 08:29:00,
2013-03-09 00:34:00,40.7,37.7,30.05,ESE,106,0.0,1.0,89,0.00,,---,0.00,VWS V14.01,2013-03-09 08:34:00,
2013-03-09 00:39:00,40.5,37.5,30.05,ESE,106,0.0,2.0,89,0.00,,---,0.00,VWS V14.01,2013-03-09 08:39:00,
2013-03-09 00:44:00,40.3,37.6,30.06,ESE,106,0.0,0.0,90,0.00,,---,0.00,VWS V14.01,2013-03-09 08:44:00,
2013-03-09 00:49:00,40.1,37.4,30.06,ESE,106,0.0,0.0,90,0.00,,---,0.00,VWS V14.01,2013-03-09 08:49:00,
2013-03-09 00:54:00,40.0,37.3,30.06,ESE,106,3.0,3.0,90,0.00,,---,0.00,VWS V14.01,2013-03-09 08:54:00,
2013-03-09 00:59:00,39.9,37.2,30.06,SE,126,0.0,3.0,90,0.00,,---,0.00,VWS V14.01,2013-03-09 08:59:00,
2013-03-09 01:04:00,40.0,37.6,30.07,SE,126,0.0,1.0,91,0.00,,---,0.00,VWS V14.01,2013-03-09 09:04:00,
2013-03-09 01:09:00,40.0,37.6,30.07,SE,126,0.0,1.0,91,0.00,,---,0.00,VWS V14.01,2013-03-09 09:09:00,
2013-03-09 01:14:00,39.8,37.1,30.08,SE,126,0.0,0.0,90,0.00,,---,0.00,VWS V14.01,2013-03-09 09:14:00,
2013-03-09 01:19:00,40.0,37.6,30.08,SE,126,0.0,1.0,91,0.00,,---,0.00,VWS V14.01,2013-03-09 09:19:00,
2013-03-09 01:24:00,40.1,37.7,30.08,SE,126,0.0,1.0,91,0.00,,---,0.00,VWS V14.01,2013-03-09 09:24:00,
2013-03-09 01:29:00,40.3,37.9,30.08,SE,126,0.0,1.0,91,0.00,,---,0.00,VWS V14.01,2013-03-09 09:29:00,
2013-03-09 01:34:00,40.3,37.9,30.08,SE,126,0.0,0.0,91,0.00,,---,0.00,VWS V14.01,2013-03-09 09:34:00,
2013-03-09 01:39:00,40.3,37.9,30.08,SE,126,0.0,0.0,91,0.00,,---,0.00,VWS V14.01,2013-03-09 09:39:00,
2013-03-09 01:44:00,40.3,37.9,30.08,SE,126,0.0,0.0,91,0.00,,---,0.00,VWS V14.01,2013-03-09 09:44:00,
2013-03-09 01:49:00,40.6,38.5,30.08,SE,126,0.0,0.0,92,0.00,,---,0.00,VWS V14.01,2013-03-09 09:49:00,
2013-03-09 01:54:00,40.6,38.5,30.08,SE,126,0.0,0.0,92,0.00,,---,0.00,VWS V14.01,2013-03-09 09:54:00,
2013-03-09 01:59:00,40.6,38.5,30.08,SE,126,0.0,0.0,92,0.00,,---,0.00,VWS V14.01,2013-03-09 09:59:00,
2013-03-09 02:04:00,40.3,37.9,30.08,SE,126,0.0,0.0,91,0.00,,---,0.00,VWS V14.01,2013-03-09 10:04:00,
2013-03-09 02:09:00,40.0,37.6,30.08,SE,126,0.0,0.0,91,0.00,,---,0.00,VWS V14.01,2013-03-09 10:09:00,
2013-03-09 02:14:00,39.7,37.3,30.08,SE,126,0.0,0.0,91,0.00,,---,0.00,VWS V14.01,2013-03-09 10:14:00,
2013-03-09 02:19:00,39.6,37.2,30.08,SE,126,0.0,0.0,91,0.00,,---,0.00,VWS V14.01,2013-03-09 10:19:00,
2013-03-09 02:24:00,39.4,37.0,30.08,SE,126,0.0,0.0,91,0.00,,---,0.00,VWS V14.01,2013-03-09 10:24:00,
2013-03-09 02:29:00,39.2,36.8,30.08,SE,126,0.0,0.0,91,0.00,,---,0.00,VWS V14.01,2013-03-09 10:29:00,
2013-03-09 02:34:00,39.1,36.7,30.08,SE,126,0.0,0.0,91,0.00,,---,0.00,VWS V14.01,2013-03-09 10:34:00,
2013-03-09 02:39:00,38.9,36.5,30.08,SE,126,0.0,0.0,91,0.00,,---,0.00,VWS V14.01,2013-03-09 10:39:00,
2013-03-09 02:44:00,38.9,36.8,30.08,SE,126,0.0,1.0,92,0.00,,---,0.00,VWS V14.01,2013-03-09 10:44:00,
2013-03-09 02:49:00,38.9,36.8,30.08,SE,126,0.0,1.0,92,0.00,,---,0.00,VWS V14.01,2013-03-09 10:49:00,
2013-03-09 02:54:00,38.8,36.7,30.08,SE,126,0.0,0.0,92,0.00,,---,0.00,VWS V14.01,2013-03-09 10:54:00,
2013-03-09 02:59:00,38.7,36.6,30.08,SE,126,0.0,0.0,92,0.00,,---,0.00,VWS V14.01,2013-03-09 10:59:00,
2013-03-09 03:04:00,38.6,36.5,30.08,SE,126,0.0,0.0,92,0.00,,---,0.00,VWS V14.01,2013-03-09 11:04:00,
2013-03-09 03:09:00,38.5,36.4,30.08,SE,126,0.0,0.0,92,0.00,,---,0.00,VWS V14.01,2013-03-09 11:09:00,
2013-03-09 03:14:00,38.3,36.2,30.08,SE,126,0.0,0.0,92,0.00,,---,0.00,VWS V14.01,2013-03-09 11:14:00,
2013-03-09 03:19:00,38.2,36.1,30.08,SE,126,0.0,0.0,92,0.00,,---,0.00,VWS V14.01,2013-03-09 11:19:00,
2013-03-09 03:24:00,38.1,36.0,30.08,SE,126,0.0,0.0,92,0.00,,---,0.00,VWS V14.01,2013-03-09 11:24:00,
2013-03-09 03:29:00,38.0,35.9,30.08,SE,126,0.0,0.0,92,0.00,,---,0.00,VWS V14.01,2013-03-09 11:29:00,
2013-03-09 03:34:00,37.9,35.8,30.08,SE,126,0.0,0.0,92,0.00,,---,0.00,VWS V14.01,2013-03-09 11:34:00,
2013-03-09 03:39:00,37.8,35.7,30.08,SE,126,0.0,0.0,92,0.00,,---,0.00,VWS V14.01,2013-03-09 11:39:00,
2013-03-09 03:44:00,37.7,35.6,30.08,SE,126,0.0,0.0,92,0.00,,---,0.00,VWS V14.01,2013-03-09 11:44:00,
2013-03-09 03:49:00,37.7,35.6,30.09,SE,126,0.0,0.0,92,0.00,,---,0.00,VWS V14.01,2013-03-09 11:49:00,
2013-03-09 03:54:00,37.7,35.6,30.09,SE,126,0.0,0.0,92,0.00,,---,0.00,VWS V14.01,2013-03-09 11:54:00,
2013-03-09 03:59:00,37.7,35.6,30.09,SE,126,0.0,0.0,92,0.00,,---,0.00,VWS V14.01,2013-03-09 11:59:00,
2013-03-09 04:04:00,37.7,35.6,30.10,SE,126,0.0,0.0,92,0.00,,---,0.00,VWS V14.01,2013-03-09 12:04:00,
2013-03-09 04:09:00,37.7,35.6,30.10,SE,126,0.0,0.0,92,0.00,,---,0.00,VWS V14.01,2013-03-09 12:09:00,
2013-03-09 04:14:00,37.7,35.6,30.10,SE,126,0.0,0.0,92,0.00,,---,0.00,VWS V14.01,2013-03-09 12:14:00,
2013-03-09 04:19:00,37.7,35.6,30.11,SE,126,0.0,0.0,92,0.00,,---,0.00,VWS V14.01,2013-03-09 12:19:00,
2013-03-09 04:24:00,37.7,35.6,30.11,SE,126,0.0,0.0,92,0.00,,---,0.00,VWS V14.01,2013-03-09 12:24:00,
2013-03-09 04:29:00,37.7,35.6,30.12,SE,126,0.0,0.0,92,0.00,,---,0.00,VWS V14.01,2013-03-09 12:29:00,
2013-03-09 04:34:00,37.7,35.6,30.12,SE,126,0.0,0.0,92,0.00,,---,0.00,VWS V14.01,2013-03-09 12:34:00,
2013-03-09 04:39:00,37.7,35.6,30.12,SE,126,0.0,0.0,92,0.00,,---,0.00,VWS V14.01,2013-03-09 12:39:00,
2013-03-09 04:44:00,37.7,35.6,30.13,SE,126,0.0,0.0,92,0.00,,---,0.00,VWS V14.01,2013-03-09 12:44:00,
2013-03-09 04:49:00,37.7,35.6,30.13,SE,126,0.0,0.0,92,0.00,,---,0.00,VWS V14.01,2013-03-09 12:49:00,
2013-03-09 04:54:00,37.7,35.6,30.13,SE,126,0.0,0.0,92,0.00,,---,0.00,VWS V14.01,2013-03-09 12:54:00,
2013-03-09 04:59:00,37.7,35.6,30.14,SE,126,0.0,0.0,92,0.00,,---,0.00,VWS V14.01,2013-03-09 12:59:00,
2013-03-09 05:04:00,37.7,35.6,30.14,SE,126,0.0,0.0,92,0.00,,---,0.00,VWS V14.01,2013-03-09 13:04:00,
2013-03-09 05:09:00,37.7,35.6,30.15,SE,126,0.0,0.0,92,0.00,,---,0.00,VWS V14.01,2013-03-09 13:09:00,
2013-03-09 05:14:00,37.7,35.6,30.15,SE,126,0.0,0.0,92,0.00,,---,0.00,VWS V14.01,2013-03-09 13:14:00,
2013-03-09 05:19:00,37.7,35.6,30.15,SE,126,0.0,0.0,92,0.00,,---,0.00,VWS V14.01,2013-03-09 13:19:00,
2013-03-09 05:24:00,37.7,35.6,30.16,SE,126,0.0,0.0,92,0.00,,---,0.00,VWS V14.01,2013-03-09 13:24:00,
2013-03-09 05:29:00,37.7,35.6,30.16,SE,126,0.0,0.0,92,0.00,,---,0.00,VWS V14.01,2013-03-09 13:29:00,
2013-03-09 05:34:00,37.7,35.6,30.16,SE,126,0.0,0.0,92,0.00,,---,0.00,VWS V14.01,2013-03-09 13:34:00,
2013-03-09 05:39:00,37.7,35.6,30.16,SE,126,0.0,0.0,92,0.00,,---,0.00,VWS V14.01,2013-03-09 13:39:00,
2013-03-09 05:44:00,37.7,35.6,30.17,SE,126,0.0,0.0,92,0.00,,---,0.00,VWS V14.01,2013-03-09 13:44:00,
2013-03-09 05:49:00,37.7,35.6,30.17,SE,126,0.0,0.0,92,0.00,,---,0.00,VWS V14.01,2013-03-09 13:49:00,
2013-03-09 05:54:00,37.7,35.6,30.18,SE,126,0.0,0.0,92,0.00,,---,0.00,VWS V14.01,2013-03-09 13:54:00,
2013-03-09 05:59:00,37.7,35.6,30.18,SE,126,0.0,0.0,92,0.00,,---,0.00,VWS V14.01,2013-03-09 13:59:00,
2013-03-09 06:04:00,37.7,35.6,30.18,SE,126,0.0,0.0,92,0.00,,---,0.00,VWS V14.01,2013-03-09 14:04:00,
2013-03-09 06:09:00,37.7,35.6,30.18,SE,126,0.0,0.0,92,0.00,,---,0.00,VWS V14.01,2013-03-09 14:09:00,
2013-03-09 06:14:00,37.7,35.6,30.18,SE,126,0.0,0.0,92,0.00,,---,0.00,VWS V14.01,2013-03-09 14:14:00,
2013-03-09 06:19:00,37.7,35.6,30.18,SE,126,0.0,0.0,92,0.00,,---,0.00,VWS V14.01,2013-03-09 14:19:00,
2013-03-09 06:24:00,37.7,35.6,30.18,SE,126,0.0,0.0,92,0.00,,---,0.00,VWS V14.01,2013-03-09 14:24:00,
2013-03-09 06:29:00,37.7,35.6,30.18,SE,126,0.0,0.0,92,0.00,,---,0.00,VWS V14.01,2013-03-09 14:29:00,
2013-03-09 06:34:00,37.7,35.6,30.18,SE,126,0.0,0.0,92,0.00,,---,0.00,VWS V14.01,2013-03-09 14:34:00,
2013-03-09 06:39:00,37.7,35.6,30.18,SE,126,0.0,0.0,92,0.00,,---,0.00,VWS V14.01,2013-03-09 14:39:00,
2013-03-09 06:44:00,37.7,35.6,30.19,SE,126,0.0,0.0,92,0.00,,---,0.00,VWS V14.01,2013-03-09 14:44:00,
2013-03-09 06:49:00,37.7,35.6,30.19,SE,126,0.0,0.0,92,0.00,,---,0.00,VWS V14.01,2013-03-09 14:49:00,
2013-03-09 06:54:00,36.2,34.6,30.20,SE,126,0.0,0.0,94,0.00,,---,0.00,VWS V14.01,2013-03-09 14:54:00,
2013-03-09 06:59:00,36.4,34.8,30.20,SE,126,0.0,0.0,94,0.00,,---,0.00,VWS V14.01,2013-03-09 14:59:00,
2013-03-09 07:04:00,36.6,35.0,30.19,SE,126,0.0,0.0,94,0.00,,---,0.00,VWS V14.01,2013-03-09 15:04:00,
2013-03-09 07:09:00,37.1,35.5,30.20,SE,126,0.0,0.0,94,0.00,,---,0.00,VWS V14.01,2013-03-09 15:09:00,
2013-03-09 07:14:00,37.5,35.9,30.20,SE,126,0.0,0.0,94,0.00,,---,0.00,VWS V14.01,2013-03-09 15:14:00,
2013-03-09 07:19:00,37.8,36.2,30.20,SE,126,0.0,0.0,94,0.00,,---,0.00,VWS V14.01,2013-03-09 15:19:00,
2013-03-09 07:24:00,38.5,37.2,30.20,SE,126,0.0,0.0,95,0.00,,---,0.00,VWS V14.01,2013-03-09 15:24:00,
2013-03-09 07:29:00,39.2,37.9,30.21,SE,126,0.0,0.0,95,0.00,,---,0.00,VWS V14.01,2013-03-09 15:29:00,
2013-03-09 07:34:00,39.6,38.3,30.21,SE,126,0.0,0.0,95,0.00,,---,0.00,VWS V14.01,2013-03-09 15:34:00,
2013-03-09 07:39:00,40.2,38.9,30.21,SE,126,0.0,0.0,95,0.00,,---,0.00,VWS V14.01,2013-03-09 15:39:00,
2013-03-09 07:44:00,41.0,39.7,30.21,SE,126,0.0,0.0,95,0.00,,---,0.00,VWS V14.01,2013-03-09 15:44:00,
2013-03-09 07:49:00,41.7,40.4,30.21,SE,126,0.0,0.0,95,0.00,,---,0.00,VWS V14.01,2013-03-09 15:49:00,
2013-03-09 07:54:00,42.4,41.1,30.22,SE,126,0.0,0.0,95,0.00,,---,0.00,VWS V14.01,2013-03-09 15:54:00,
2013-03-09 07:59:00,42.9,41.6,30.22,SE,126,0.0,0.0,95,0.00,,---,0.00,VWS V14.01,2013-03-09 15:59:00,
2013-03-09 08:04:00,43.5,41.9,30.22,SE,126,0.0,0.0,94,0.00,,---,0.00,VWS V14.01,2013-03-09 16:04:00,
2013-03-09 08:09:00,44.3,42.7,30.22,SE,126,0.0,0.0,94,0.00,,---,0.00,VWS V14.01,2013-03-09 16:09:00,
2013-03-09 08:14:00,44.9,43.0,30.22,SE,126,0.0,0.0,93,0.00,,---,0.00,VWS V14.01,2013-03-09 16:14:00,
2013-03-09 08:19:00,45.2,43.0,30.22,SE,126,0.0,0.0,92,0.00,,---,0.00,VWS V14.01,2013-03-09 16:19:00,
2013-03-09 08:24:00,45.4,43.2,30.22,SE,126,0.0,0.0,92,0.00,,---,0.00,VWS V14.01,2013-03-09 16:24:00,
2013-03-09 08:29:00,45.1,42.3,30.22,SE,126,0.0,0.0,90,0.00,,---,0.00,VWS V14.01,2013-03-09 16:29:00,
2013-03-09 08:34:00,45.6,42.5,30.22,ENE,59,0.0,1.0,89,0.00,,---,0.00,VWS V14.01,2013-03-09 16:34:00,
2013-03-09 08:39:00,46.8,43.1,30.22,North,9,0.0,1.0,87,0.00,,---,0.00,VWS V14.01,2013-03-09 16:39:00,
2013-03-09 08:44:00,47.9,43.6,30.22,North,9,0.0,0.0,85,0.00,,---,0.00,VWS V14.01,2013-03-09 16:44:00,
2013-03-09 08:49:00,49.1,43.8,30.23,NW,322,0.0,3.0,82,0.00,,---,0.00,VWS V14.01,2013-03-09 16:49:00,
2013-03-09 08:54:00,49.6,43.0,30.23,NW,312,4.0,4.0,78,0.00,,---,0.00,VWS V14.01,2013-03-09 16:54:00,
2013-03-09 08:59:00,49.8,42.5,30.23,West,267,0.0,6.0,76,0.00,,---,0.00,VWS V14.01,2013-03-09 16:59:00,
2013-03-09 09:04:00,50.2,42.6,30.23,NW,317,0.0,7.0,75,0.00,,---,0.00,VWS V14.01,2013-03-09 17:04:00,
2013-03-09 09:09:00,50.7,42.4,30.23,West,277,2.0,7.0,73,0.00,,---,0.00,VWS V14.01,2013-03-09 17:09:00,
2013-03-09 09:14:00,51.0,42.3,30.23,West,261,0.0,4.0,72,0.00,,---,0.00,VWS V14.01,2013-03-09 17:14:00,
2013-03-09 09:19:00,51.4,42.7,30.24,NW,313,0.0,4.0,72,0.00,,---,0.00,VWS V14.01,2013-03-09 17:19:00,
2013-03-09 09:24:00,51.9,42.8,30.24,NNW,342,0.0,4.0,71,0.00,,---,0.00,VWS V14.01,2013-03-09 17:24:00,
2013-03-09 09:29:00,52.4,42.9,30.24,NW,319,0.0,5.0,70,0.00,,---,0.00,VWS V14.01,2013-03-09 17:29:00,
2013-03-09 09:34:00,52.6,42.3,30.24,WNW,302,2.0,4.0,68,0.00,,---,0.00,VWS V14.01,2013-03-09 17:34:00,
2013-03-09 09:39:00,53.0,42.3,30.24,West,263,1.0,6.0,67,0.00,,---,0.00,VWS V14.01,2013-03-09 17:39:00,
2013-03-09 09:44:00,53.2,42.5,30.24,NNW,329,0.0,3.0,67,0.00,,---,0.00,VWS V14.01,2013-03-09 17:44:00,
2013-03-09 09:49:00,53.8,42.7,30.24,NNW,333,0.0,4.0,66,0.00,,---,0.00,VWS V14.01,2013-03-09 17:49:00,
2013-03-09 09:54:00,54.2,42.7,30.24,WNW,285,2.0,5.0,65,0.00,,---,0.00,VWS V14.01,2013-03-09 17:54:00,
2013-03-09 09:59:00,54.7,42.8,30.24,WSW,250,2.0,5.0,64,0.00,,---,0.00,VWS V14.01,2013-03-09 17:59:00,
2013-03-09 10:04:00,55.0,42.2,30.24,West,279,0.0,1.0,62,0.00,,---,0.00,VWS V14.01,2013-03-09 18:04:00,
2013-03-09 10:09:00,55.2,41.6,30.24,NW,304,0.0,5.0,60,0.00,,---,0.00,VWS V14.01,2013-03-09 18:09:00,
2013-03-09 10:14:00,55.5,41.0,30.24,NE,46,0.0,6.0,58,0.00,,---,0.00,VWS V14.01,2013-03-09 18:14:00,
2013-03-09 10:19:00,56.1,40.6,30.25,WNW,295,2.0,7.0,56,0.00,,---,0.00,VWS V14.01,2013-03-09 18:19:00,
2013-03-09 10:24:00,56.4,40.5,30.25,WNW,288,0.0,8.0,55,0.00,,---,0.00,VWS V14.01,2013-03-09 18:24:00,
2013-03-09 10:29:00,56.7,39.8,30.25,West,273,7.0,9.0,53,0.00,,---,0.00,VWS V14.01,2013-03-09 18:29:00,
2013-03-09 10:34:00,56.4,39.0,30.25,North,355,7.0,7.0,52,0.00,,---,0.00,VWS V14.01,2013-03-09 18:34:00,
2013-03-09 10:39:00,56.8,39.4,30.25,NW,312,1.0,7.0,52,0.00,,---,0.00,VWS V14.01,2013-03-09 18:39:00,
2013-03-09 10:44:00,57.0,39.6,30.25,WNW,298,1.0,8.0,52,0.00,,---,0.00,VWS V14.01,2013-03-09 18:44:00,
2013-03-09 10:49:00,57.0,39.1,30.25,WNW,294,0.0,10.0,51,0.00,,---,0.00,VWS V14.01,2013-03-09 18:49:00,
2013-03-09 10:54:00,56.9,39.5,30.25,NW,306,7.0,7.0,52,0.00,,---,0.00,VWS V14.01,2013-03-09 18:54:00,
2013-03-09 10:59:00,57.1,39.2,30.25,NW,310,2.0,11.0,51,0.00,,---,0.00,VWS V14.01,2013-03-09 18:59:00,
2013-03-09 11:04:00,57.5,39.0,30.25,WSW,256,3.0,9.0,50,0.00,,---,0.00,VWS V14.01,2013-03-09 19:04:00,
2013-03-09 11:09:00,57.9,39.4,30.26,West,277,6.0,10.0,50,0.00,,---,0.00,VWS V14.01,2013-03-09 19:09:00,
2013-03-09 11:14:00,58.0,40.0,30.26,West,278,2.0,7.0,51,0.00,,---,0.00,VWS V14.01,2013-03-09 19:14:00,
2013-03-09 11:19:00,58.7,39.6,30.26,WNW,292,4.0,9.0,49,0.00,,---,0.00,VWS V14.01,2013-03-09 19:19:00,
2013-03-09 11:24:00,59.0,39.9,30.26,NW,326,3.0,6.0,49,0.00,,---,0.00,VWS V14.01,2013-03-09 19:24:00,
2013-03-09 11:29:00,59.0,39.9,30.26,SW,233,3.0,6.0,49,0.00,,---,0.00,VWS V14.01,2013-03-09 19:29:00,
2013-03-09 11:34:00,59.4,40.2,30.26,WSW,245,0.0,3.0,49,0.00,,---,0.00,VWS V14.01,2013-03-09 19:34:00,
2013-03-09 11:39:00,59.5,39.8,30.26,WNW,300,2.0,10.0,48,0.00,,---,0.00,VWS V14.01,2013-03-09 19:39:00,
2013-03-09 11:44:00,59.0,38.8,30.26,WNW,293,2.0,9.0,47,0.00,,---,0.00,VWS V14.01,2013-03-09 19:44:00,
2013-03-09 11:49:00,59.6,40.4,30.26,South,178,0.0,9.0,49,0.00,,---,0.00,VWS V14.01,2013-03-09 19:49:00,
2013-03-09 11:54:00,60.2,40.5,30.26,SSW,207,1.0,2.0,48,0.00,,---,0.00,VWS V14.01,2013-03-09 19:54:00,
2013-03-09 11:59:00,60.4,40.1,30.26,NNE,17,4.0,5.0,47,0.00,,---,0.00,VWS V14.01,2013-03-09 19:59:00,
2013-03-09 12:04:00,61.4,41.0,30.26,WSW,247,1.0,2.0,47,0.00,,---,0.00,VWS V14.01,2013-03-09 20:04:00,
2013-03-09 12:09:00,61.5,40.0,30.26,NW,309,1.0,10.0,45,0.00,,---,0.00,VWS V14.01,2013-03-09 20:09:00,
2013-03-09 12:14:00,61.3,39.2,30.25,West,264,0.0,6.0,44,0.00,,---,0.00,VWS V14.01,2013-03-09 20:14:00,
2013-03-09 12:19:00,61.6,38.9,30.25,SSE,152,0.0,6.0,43,0.00,,---,0.00,VWS V14.01,2013-03-09 20:19:00,
2013-03-09 12:24:00,62.1,39.4,30.25,NNW,344,2.0,4.0,43,0.00,,---,0.00,VWS V14.01,2013-03-09 20:24:00,
2013-03-09 12:29:00,62.7,38.7,30.25,West,259,0.0,7.0,41,0.00,,---,0.00,VWS V14.01,2013-03-09 20:29:00,
2013-03-09 12:34:00,62.9,38.9,30.25,NNW,348,1.0,6.0,41,0.00,,---,0.00,VWS V14.01,2013-03-09 20:34:00,
2013-03-09 12:39:00,62.8,37.5,30.25,NW,306,4.0,10.0,39,0.00,,---,0.00,VWS V14.01,2013-03-09 20:39:00,
2013-03-09 12:44:00,62.9,38.2,30.25,WNW,296,2.0,2.0,40,0.00,,---,0.00,VWS V14.01,2013-03-09 20:44:00,
2013-03-09 12:49:00,63.4,38.0,30.25,East,92,4.0,7.0,39,0.00,,---,0.00,VWS V14.01,2013-03-09 20:49:00,
2013-03-09 12:54:00,63.9,37.8,30.24,SSW,205,3.0,10.0,38,0.00,,---,0.00,VWS V14.01,2013-03-09 20:54:00,
2013-03-09 12:59:00,63.5,38.8,30.24,WSW,238,3.0,11.0,40,0.00,,---,0.00,VWS V14.01,2013-03-09 20:59:00,
2013-03-09 13:04:00,63.7,38.3,30.24,NNE,15,3.0,5.0,39,0.00,,---,0.00,VWS V14.01,2013-03-09 21:04:00,
2013-03-09 13:09:00,64.1,37.3,30.24,NW,325,4.0,10.0,37,0.00,,---,0.00,VWS V14.01,2013-03-09 21:09:00,
2013-03-09 13:14:00,64.4,37.6,30.24,NNW,336,3.0,3.0,37,0.00,,---,0.00,VWS V14.01,2013-03-09 21:14:00,
2013-03-09 13:19:00,65.0,37.4,30.24,NNW,340,0.0,6.0,36,0.00,,---,0.00,VWS V14.01,2013-03-09 21:19:00,
2013-03-09 13:24:00,64.9,37.3,30.24,WNW,282,4.0,10.0,36,0.00,,---,0.00,VWS V14.01,2013-03-09 21:24:00,
2013-03-09 13:29:00,64.6,37.1,30.24,WNW,300,1.0,10.0,36,0.00,,---,0.00,VWS V14.01,2013-03-09 21:29:00,
2013-03-09 13:34:00,64.5,37.7,30.23,WSW,249,3.0,11.0,37,0.00,,---,0.00,VWS V14.01,2013-03-09 21:34:00,
2013-03-09 13:39:00,64.6,37.1,30.23,North,360,5.0,13.0,36,0.00,,---,0.00,VWS V14.01,2013-03-09 21:39:00,
2013-03-09 13:44:00,65.0,37.4,30.23,NE,38,3.0,5.0,36,0.00,,---,0.00,VWS V14.01,2013-03-09 21:44:00,
2013-03-09 13:49:00,65.6,38.0,30.23,WSW,251,1.0,5.0,36,0.00,,---,0.00,VWS V14.01,2013-03-09 21:49:00,
2013-03-09 13:54:00,65.7,37.3,30.23,WSW,246,1.0,9.0,35,0.00,,---,0.00,VWS V14.01,2013-03-09 21:54:00,
2013-03-09 13:59:00,65.7,38.0,30.23,West,262,2.0,9.0,36,0.00,,---,0.00,VWS V14.01,2013-03-09 21:59:00,
2013-03-09 14:04:00,65.7,38.0,30.23,NNW,342,5.0,6.0,36,0.00,,---,0.00,VWS V14.01,2013-03-09 22:04:00,
2013-03-09 14:09:00,65.9,38.2,30.23,NNW,329,2.0,7.0,36,0.00,,---,0.00,VWS V14.01,2013-03-09 22:09:00,
2013-03-09 14:14:00,66.0,38.3,30.23,West,267,0.0,9.0,36,0.00,,---,0.00,VWS V14.01,2013-03-09 22:14:00,
2013-03-09 14:19:00,65.8,38.1,30.23,SW,235,4.0,9.0,36,0.00,,---,0.00,VWS V14.01,2013-03-09 22:19:00,
2013-03-09 14:24:00,65.6,38.0,30.23,NW,320,0.0,11.0,36,0.00,,---,0.00,VWS V14.01,2013-03-09 22:24:00,
2013-03-09 14:28:00,66.0,38.3,30.23,West,260,2.0,11.0,36,0.00,,---,0.00,VWS V14.01,2013-03-09 22:28:00,
2013-03-09 14:33:00,66.3,37.8,30.23,NW,304,3.0,7.0,35,0.00,,---,0.00,VWS V14.01,2013-03-09 22:33:00,
2013-03-09 14:38:00,66.4,37.9,30.23,NNE,25,2.0,7.0,35,0.00,,---,0.00,VWS V14.01,2013-03-09 22:38:00,
2013-03-09 14:43:00,66.7,37.5,30.23,NNE,26,5.0,13.0,34,0.00,,---,0.00,VWS V14.01,2013-03-09 22:43:00,
2013-03-09 14:48:00,66.9,36.9,30.23,NNW,330,2.0,13.0,33,0.00,,---,0.00,VWS V14.01,2013-03-09 22:48:00,
2013-03-09 14:53:00,67.0,37.0,30.23,West,273,8.0,9.0,33,0.00,,---,0.00,VWS V14.01,2013-03-09 22:53:00,
2013-03-09 14:58:00,66.8,36.8,30.23,NNW,348,1.0,10.0,33,0.00,,---,0.00,VWS V14.01,2013-03-09 22:58:00,
2013-03-09 15:03:00,67.1,37.1,30.23,NNW,332,2.0,9.0,33,0.00,,---,0.00,VWS V14.01,2013-03-09 23:03:00,
2013-03-09 15:08:00,66.9,36.9,30.23,WNW,285,7.0,10.0,33,0.00,,---,0.00,VWS V14.01,2013-03-09 23:08:00,
2013-03-09 15:13:00,67.0,37.0,30.23,NW,323,2.0,6.0,33,0.00,,---,0.00,VWS V14.01,2013-03-09 23:13:00,
2013-03-09 15:18:00,67.0,37.7,30.23,West,271,5.0,7.0,34,0.00,,---,0.00,VWS V14.01,2013-03-09 23:18:00,
2013-03-09 15:23:00,67.1,38.6,30.23,WNW,302,0.0,4.0,35,0.00,,---,0.00,VWS V14.01,2013-03-09 23:23:00,
2013-03-09 15:28:00,67.2,38.7,30.23,West,268,5.0,9.0,35,0.00,,---,0.00,VWS V14.01,2013-03-09 23:28:00,
2013-03-09 15:33:00,67.2,38.7,30.23,NW,325,5.0,5.0,35,0.00,,---,0.00,VWS V14.01,2013-03-09 23:33:00,
2013-03-09 15:38:00,67.3,38.0,30.23,West,275,0.0,5.0,34,0.00,,---,0.00,VWS V14.01,2013-03-09 23:38:00,
2013-03-09 15:43:00,67.3,38.0,30.22,NW,304,3.0,12.0,34,0.00,,---,0.00,VWS V14.01,2013-03-09 23:43:00,
2013-03-09 15:48:00,67.2,37.9,30.23,NW,317,10.0,12.0,34,0.00,,---,0.00,VWS V14.01,2013-03-09 23:48:00,
2013-03-09 15:53:00,67.1,37.8,30.22,WSW,247,2.0,8.0,34,0.00,,---,0.00,VWS V14.01,2013-03-09 23:53:00,
2013-03-09 15:58:00,67.1,37.1,30.23,NW,318,0.0,10.0,33,0.00,,---,0.00,VWS V14.01,2013-03-09 23:58:00,
2013-03-09 16:03:00,67.1,37.8,30.22,WSW,246,0.0,7.0,34,0.00,,---,0.00,VWS V14.01,2013-03-10 00:03:00,
2013-03-09 16:08:00,67.2,36.4,30.22,NW,310,4.0,7.0,32,0.00,,---,0.00,VWS V14.01,2013-03-10 00:08:00,
2013-03-09 16:13:00,67.2,36.4,30.22,NW,325,0.0,10.0,32,0.00,,---,0.00,VWS V14.01,2013-03-10 00:13:00,
2013-03-09 16:18:00,67.1,36.3,30.22,NW,321,6.0,10.0,32,0.00,,---,0.00,VWS V14.01,2013-03-10 00:18:00,
2013-03-09 16:23:00,67.0,35.4,30.22,WNW,303,0.0,11.0,31,0.00,,---,0.00,VWS V14.01,2013-03-10 00:23:00,
2013-03-09 16:28:00,66.9,36.1,30.22,NW,314,1.0,11.0,32,0.00,,---,0.00,VWS V14.01,2013-03-10 00:28:00,
2013-03-09 16:33:00,66.8,36.0,30.22,WNW,296,0.0,9.0,32,0.00,,---,0.00,VWS V14.01,2013-03-10 00:33:00,
2013-03-09 16:38:00,66.8,36.0,30.22,WNW,295,2.0,9.0,32,0.00,,---,0.00,VWS V14.01,2013-03-10 00:38:00,
2013-03-09 16:43:00,66.7,35.9,30.22,WSW,242,3.0,8.0,32,0.00,,---,0.00,VWS V14.01,2013-03-10 00:43:00,
2013-03-09 16:48:00,66.6,36.6,30.23,NW,323,2.0,8.0,33,0.00,,---,0.00,VWS V14.01,2013-03-10 00:48:00,
2013-03-09 16:53:00,66.5,36.5,30.23,NW,316,3.0,9.0,33,0.00,,---,0.00,VWS V14.01,2013-03-10 00:53:00,
2013-03-09 16:58:00,66.4,37.2,30.23,South,184,1.0,9.0,34,0.00,,---,0.00,VWS V14.01,2013-03-10 00:58:00,
2013-03-09 17:03:00,66.1,38.4,30.23,WSW,249,0.0,3.0,36,0.00,,---,0.00,VWS V14.01,2013-03-10 01:03:00,
2013-03-09 17:08:00,65.7,38.7,30.23,West,278,0.0,3.0,37,0.00,,---,0.00,VWS V14.01,2013-03-10 01:08:00,
2013-03-09 17:13:00,65.2,39.0,30.23,West,265,0.0,2.0,38,0.00,,---,0.00,VWS V14.01,2013-03-10 01:13:00,
2013-03-09 17:18:00,64.7,39.2,30.23,West,265,0.0,2.0,39,0.00,,---,0.00,VWS V14.01,2013-03-10 01:18:00,
2013-03-09 17:23:00,64.0,39.2,30.23,West,265,0.0,0.0,40,0.00,,---,0.00,VWS V14.01,2013-03-10 01:23:00,
2013-03-09 17:28:00,63.1,40.9,30.23,West,265,0.0,0.0,44,0.00,,---,0.00,VWS V14.01,2013-03-10 01:28:00,
2013-03-09 17:33:00,62.2,40.6,30.23,West,265,0.0,0.0,45,0.00,,---,0.00,VWS V14.01,2013-03-10 01:33:00,
2013-03-09 17:38:00,61.3,40.4,30.23,West,265,0.0,0.0,46,0.00,,---,0.00,VWS V14.01,2013-03-10 01:38:00,
2013-03-09 17:43:00,60.5,40.2,30.23,West,265,0.0,0.0,47,0.00,,---,0.00,VWS V14.01,2013-03-10 01:43:00,
2013-03-09 17:48:00,59.8,40.6,30.23,West,265,0.0,0.0,49,0.00,,---,0.00,VWS V14.01,2013-03-10 01:48:00,
2013-03-09 17:53:00,59.0,39.4,30.24,West,265,0.0,0.0,48,0.00,,---,0.00,VWS V14.01,2013-03-10 01:53:00,
2013-03-09 17:58:00,58.3,38.7,30.24,West,265,0.0,0.0,48,0.00,,---,0.00,VWS V14.01,2013-03-10 01:58:00,
2013-03-09 18:03:00,57.7,38.7,30.24,West,265,0.0,0.0,49,0.00,,---,0.00,VWS V14.01,2013-03-10 02:03:00,
2013-03-09 18:08:00,57.2,38.8,30.24,West,265,0.0,0.0,50,0.00,,---,0.00,VWS V14.01,2013-03-10 02:08:00,
2013-03-09 18:13:00,56.6,37.7,30.24,West,265,0.0,0.0,49,0.00,,---,0.00,VWS V14.01,2013-03-10 02:13:00,
2013-03-09 18:18:00,56.2,37.3,30.24,West,265,0.0,0.0,49,0.00,,---,0.00,VWS V14.01,2013-03-10 02:18:00,
2013-03-09 18:23:00,55.9,37.5,30.24,West,265,0.0,0.0,50,0.00,,---,0.00,VWS V14.01,2013-03-10 02:23:00,
2013-03-09 18:28:00,55.6,38.3,30.25,West,265,0.0,0.0,52,0.00,,---,0.00,VWS V14.01,2013-03-10 02:28:00,
2013-03-09 18:33:00,55.1,38.3,30.25,West,265,0.0,0.0,53,0.00,,---,0.00,VWS V14.01,2013-03-10 02:33:00,
2013-03-09 18:38:00,54.8,38.0,30.25,West,265,0.0,0.0,53,0.00,,---,0.00,VWS V14.01,2013-03-10 02:38:00,
2013-03-09 18:43:00,54.4,38.1,30.25,West,265,0.0,0.0,54,0.00,,---,0.00,VWS V14.01,2013-03-10 02:43:00,
2013-03-09 18:48:00,54.0,38.2,30.25,West,265,0.0,0.0,55,0.00,,---,0.00,VWS V14.01,2013-03-10 02:48:00,
2013-03-09 18:53:00,53.7,38.8,30.25,West,265,0.0,0.0,57,0.00,,---,0.00,VWS V14.01,2013-03-10 02:53:00,
2013-03-09 18:58:00,53.4,38.1,30.25,West,265,0.0,0.0,56,0.00,,---,0.00,VWS V14.01,2013-03-10 02:58:00,
2013-03-09 19:03:00,53.1,38.7,30.25,West,265,0.0,0.0,58,0.00,,---,0.00,VWS V14.01,2013-03-10 03:03:00,
2013-03-09 19:08:00,52.7,39.2,30.24,West,265,0.0,1.0,60,0.00,,---,0.00,VWS V14.01,2013-03-10 03:08:00,
2013-03-09 19:13:00,52.3,39.3,30.25,West,265,0.0,0.0,61,0.00,,---,0.00,VWS V14.01,2013-03-10 03:13:00,
2013-03-09 19:18:00,51.8,38.8,30.25,West,265,0.0,0.0,61,0.00,,---,0.00,VWS V14.01,2013-03-10 03:18:00,
2013-03-09 19:23:00,51.5,39.7,30.25,West,265,0.0,0.0,64,0.00,,---,0.00,VWS V14.01,2013-03-10 03:23:00,
2013-03-09 19:28:00,51.3,39.2,30.25,West,265,0.0,0.0,63,0.00,,---,0.00,VWS V14.01,2013-03-10 03:28:00,
2013-03-09 19:33:00,51.1,39.4,30.25,West,265,0.0,0.0,64,0.00,,---,0.00,VWS V14.01,2013-03-10 03:33:00,
2013-03-09 19:38:00,50.9,39.6,30.25,West,265,0.0,0.0,65,0.00,,---,0.00,VWS V14.01,2013-03-10 03:38:00,
2013-03-09 19:43:00,50.7,39.8,30.25,West,265,0.0,0.0,66,0.00,,---,0.00,VWS V14.01,2013-03-10 03:43:00,
2013-03-09 19:48:00,50.5,39.6,30.25,West,265,0.0,0.0,66,0.00,,---,0.00,VWS V14.01,2013-03-10 03:48:00,
2013-03-09 19:53:00,50.2,39.7,30.26,West,265,0.0,0.0,67,0.00,,---,0.00,VWS V14.01,2013-03-10 03:53:00,
2013-03-09 19:58:00,49.9,39.8,30.26,West,265,0.0,0.0,68,0.00,,---,0.00,VWS V14.01,2013-03-10 03:58:00,
2013-03-09 20:03:00,49.7,39.6,30.26,West,265,0.0,0.0,68,0.00,,---,0.00,VWS V14.01,2013-03-10 04:03:00,
2013-03-09 20:08:00,49.5,39.4,30.26,West,265,0.0,0.0,68,0.00,,---,0.00,VWS V14.01,2013-03-10 04:08:00,
2013-03-09 20:13:00,49.4,39.7,30.26,West,265,0.0,0.0,69,0.00,,---,0.00,VWS V14.01,2013-03-10 04:13:00,
2013-03-09 20:18:00,49.3,39.6,30.26,West,265,0.0,0.0,69,0.00,,---,0.00,VWS V14.01,2013-03-10 04:18:00,
2013-03-09 20:23:00,49.2,39.5,30.26,West,265,0.0,0.0,69,0.00,,---,0.00,VWS V14.01,2013-03-10 04:23:00,
2013-03-09 20:28:00,49.0,39.3,30.26,West,265,0.0,0.0,69,0.00,,---,0.00,VWS V14.01,2013-03-10 04:28:00,
2013-03-09 20:33:00,48.8,39.5,30.27,West,265,0.0,0.0,70,0.00,,---,0.00,VWS V14.01,2013-03-10 04:33:00,
2013-03-09 20:38:00,48.7,39.7,30.27,West,265,0.0,0.0,71,0.00,,---,0.00,VWS V14.01,2013-03-10 04:38:00,
2013-03-09 20:43:00,48.8,39.8,30.27,West,265,0.0,0.0,71,0.00,,---,0.00,VWS V14.01,2013-03-10 04:43:00,
2013-03-09 20:48:00,48.8,39.8,30.27,West,265,0.0,0.0,71,0.00,,---,0.00,VWS V14.01,2013-03-10 04:48:00,
2013-03-09 20:53:00,48.8,39.8,30.27,West,265,0.0,0.0,71,0.00,,---,0.00,VWS V14.01,2013-03-10 04:53:00,
2013-03-09 20:58:00,48.7,39.7,30.27,West,265,0.0,0.0,71,0.00,,---,0.00,VWS V14.01,2013-03-10 04:58:00,
2013-03-09 21:00:00,48.6,39.3,30.27,West,265,0.0,0.0,70,0.00,,---,0.00,VWS V14.01,2013-03-10 05:00:00,
2013-03-09 21:05:00,48.5,39.2,30.27,West,265,0.0,0.0,70,0.00,,---,0.00,VWS V14.01,2013-03-10 05:05:00,
2013-03-09 21:10:00,48.3,39.3,30.27,West,265,0.0,0.0,71,0.00,,---,0.00,VWS V14.01,2013-03-10 05:10:00,
2013-03-09 21:15:00,48.1,39.5,30.27,West,265,0.0,0.0,72,0.00,,---,0.00,VWS V14.01,2013-03-10 05:15:00,
2013-03-09 21:20:00,47.9,39.3,30.27,West,265,0.0,0.0,72,0.00,,---,0.00,VWS V14.01,2013-03-10 05:20:00,
2013-03-09 21:25:00,47.6,39.0,30.28,West,265,0.0,0.0,72,0.00,,---,0.00,VWS V14.01,2013-03-10 05:25:00,
2013-03-09 21:30:00,47.4,38.8,30.28,West,265,0.0,0.0,72,0.00,,---,0.00,VWS V14.01,2013-03-10 05:30:00,
2013-03-09 21:35:00,47.1,38.9,30.28,West,265,0.0,1.0,73,0.00,,---,0.00,VWS V14.01,2013-03-10 05:35:00,
2013-03-09 21:40:00,47.1,38.5,30.28,West,265,0.0,1.0,72,0.00,,---,0.00,VWS V14.01,2013-03-10 05:40:00,
2013-03-09 21:45:00,47.0,38.8,30.28,West,265,0.0,0.0,73,0.00,,---,0.00,VWS V14.01,2013-03-10 05:45:00,
2013-03-09 21:50:00,46.9,38.7,30.28,West,265,0.0,0.0,73,0.00,,---,0.00,VWS V14.01,2013-03-10 05:50:00,
2013-03-09 21:55:00,46.6,38.4,30.29,West,265,0.0,0.0,73,0.00,,---,0.00,VWS V14.01,2013-03-10 05:55:00,
2013-03-09 22:00:00,46.4,38.6,30.29,West,265,0.0,0.0,74,0.00,,---,0.00,VWS V14.01,2013-03-10 06:00:00,
2013-03-09 22:05:00,46.3,38.5,30.29,West,265,0.0,0.0,74,0.00,,---,0.00,VWS V14.01,2013-03-10 06:05:00,
2013-03-09 22:10:00,46.0,38.2,30.29,SSE,163,0.0,2.0,74,0.00,,---,0.00,VWS V14.01,2013-03-10 06:10:00,
2013-03-09 22:15:00,45.8,38.3,30.29,SSE,163,0.0,1.0,75,0.00,,---,0.00,VWS V14.01,2013-03-10 06:15:00,
2013-03-09 22:20:00,45.6,38.5,30.29,SSE,163,0.0,1.0,76,0.00,,---,0.00,VWS V14.01,2013-03-10 06:20:00,
2013-03-09 22:25:00,45.6,38.5,30.29,SSE,163,0.0,0.0,76,0.00,,---,0.00,VWS V14.01,2013-03-10 06:25:00,
2013-03-09 22:30:00,45.4,38.3,30.29,SSE,163,0.0,0.0,76,0.00,,---,0.00,VWS V14.01,2013-03-10 06:30:00,
2013-03-09 22:35:00,45.3,38.2,30.29,SSE,163,0.0,0.0,76,0.00,,---,0.00,VWS V14.01,2013-03-10 06:35:00,
2013-03-09 22:40:00,45.0,37.9,30.29,SSE,163,0.0,0.0,76,0.00,,---,0.00,VWS V14.01,2013-03-10 06:40:00,
2013-03-09 22:45:00,44.9,38.1,30.29,SSE,163,0.0,0.0,77,0.00,,---,0.00,VWS V14.01,2013-03-10 06:45:00,
2013-03-09 22:50:00,44.7,37.9,30.29,SSE,163,0.0,0.0,77,0.00,,---,0.00,VWS V14.01,2013-03-10 06:50:00,
2013-03-09 22:55:00,44.6,38.2,30.29,SSE,163,0.0,0.0,78,0.00,,---,0.00,VWS V14.01,2013-03-10 06:55:00,
2013-03-09 23:00:00,44.4,38.0,30.28,SSE,163,0.0,0.0,78,0.00,,---,0.00,VWS V14.01,2013-03-10 07:00:00,
2013-03-09 23:05:00,44.3,37.9,30.29,SSE,164,0.0,0.0,78,0.00,,---,0.00,VWS V14.01,2013-03-10 07:05:00,
2013-03-09 23:10:00,44.1,38.0,30.28,SSE,163,0.0,0.0,79,0.00,,---,0.00,VWS V14.01,2013-03-10 07:10:00,
2013-03-09 23:15:00,43.9,37.8,30.29,SSE,163,0.0,1.0,79,0.00,,---,0.00,VWS V14.01,2013-03-10 07:15:00,
2013-03-09 23:20:00,43.8,37.7,30.28,SSE,163,0.0,1.0,79,0.00,,---,0.00,VWS V14.01,2013-03-10 07:20:00,
2013-03-09 23:25:00,43.6,37.8,30.28,SSE,163,0.0,0.0,80,0.00,,---,0.00,VWS V14.01,2013-03-10 07:25:00,
2013-03-09 23:30:00,43.4,37.7,30.28,SSE,163,0.0,0.0,80,0.00,,---,0.00,VWS V14.01,2013-03-10 07:30:00,
2013-03-09 23:35:00,43.2,37.5,30.28,SSE,163,0.0,0.0,80,0.00,,---,0.00,VWS V14.01,2013-03-10 07:35:00,
2013-03-09 23:40:00,43.1,37.7,30.28,SSE,163,0.0,0.0,81,0.00,,---,0.00,VWS V14.01,2013-03-10 07:40:00,
2013-03-09 23:45:00,42.8,37.4,30.29,SSE,163,0.0,0.0,81,0.00,,---,0.00,VWS V14.01,2013-03-10 07:45:00,
2013-03-09 23:50:00,42.6,37.5,30.28,SSE,163,0.0,0.0,82,0.00,,---,0.00,VWS V14.01,2013-03-10 07:50:00,
2013-03-09 23:55:00,42.5,37.7,30.28,SSE,163,0.0,0.0,83,0.00,,---,0.00,VWS V14.01,2013-03-10 07:55:00,